Time;durP1;ratioP1;P1;durP2;ratioP2;P2;SDS_P1;SDS_P2;PMS_P1;PMS_P2;Temp;Humidity;BMP_temperature;BMP_pressure;BME280_temperature;BME280_humidity;BME280_pressure;Samples;Min_cycle;Max_cycle;Signal;HPM_P1;HPM_P2
2022/07/03 00:04:47;;;;;;;2.38;1.50;;;;;;;16.74;52.93;100045.66;10468742;28;20183;-62
2022/07/03 00:09:49;;;;;;;4.22;1.67;;;;;;;16.66;52.92;100050.75;10467804;28;20059;-62
2022/07/03 00:14:51;;;;;;;3.65;1.60;;;;;;;16.63;53.02;100043.91;10466708;28;21229;-62
2022/07/03 00:19:54;;;;;;;4.03;1.60;;;;;;;16.49;53.13;100046.84;10467758;28;20052;-62
2022/07/03 00:25:03;;;;;;;3.60;1.75;;;;;;;16.23;54.43;100053.41;10466636;28;20555;-62
2022/07/03 00:30:07;;;;;;;3.65;1.75;;;;;;;16.18;54.63;100053.75;10467383;28;20052;-62
2022/07/03 00:35:15;;;;;;;4.82;1.75;;;;;;;16.13;54.62;100047.19;10467328;28;20056;-61
2022/07/03 00:40:17;;;;;;;2.72;1.50;;;;;;;16.22;54.42;100047.28;10466645;28;20460;-63
2022/07/03 00:45:20;;;;;;;3.47;1.67;;;;;;;16.15;54.73;100046.13;10466940;28;20118;-62
2022/07/03 00:50:26;;;;;;;3.08;1.58;;;;;;;16.10;54.77;100063.28;10465807;28;20508;-63
2022/07/03 00:55:28;;;;;;;5.38;1.60;;;;;;;16.10;54.38;100056.19;10465664;28;20398;-62
2022/07/03 01:00:30;;;;;;;3.40;1.70;;;;;;;16.02;54.33;100052.47;10466582;28;20127;-62
2022/07/03 01:05:37;;;;;;;3.15;1.85;;;;;;;15.88;55.02;100036.91;10466464;28;20060;-63
2022/07/03 01:11:15;;;;;;;3.55;1.70;;;;;;;15.81;55.09;100036.59;10465738;28;20611;-62
2022/07/03 01:17:03;;;;;;;2.90;1.80;;;;;;;15.71;55.61;100029.53;10466045;28;20080;-62
2022/07/03 01:22:27;;;;;;;3.53;1.80;;;;;;;15.77;55.24;100032.53;10441711;28;20144;-62
2022/07/03 01:28:01;;;;;;;4.25;1.77;;;;;;;15.74;55.79;100027.47;10472094;28;20159;-62
2022/07/03 01:33:09;;;;;;;2.75;1.70;;;;;;;15.72;55.86;100024.13;10465136;28;20143;-62
2022/07/03 01:38:13;;;;;;;3.78;1.80;;;;;;;15.63;56.09;100018.75;10473245;28;20087;-62
2022/07/03 01:43:18;;;;;;;2.63;1.63;;;;;;;15.54;56.30;100020.31;10473421;28;20597;-62
2022/07/03 01:48:22;;;;;;;3.70;1.90;;;;;;;15.54;56.01;100033.50;10472419;28;20459;-62
2022/07/03 01:53:26;;;;;;;2.70;1.70;;;;;;;15.47;55.96;100034.06;10455082;28;20605;-62
2022/07/03 01:58:28;;;;;;;2.90;1.60;;;;;;;15.42;55.79;100037.06;10473041;28;20131;-62
2022/07/03 02:03:32;;;;;;;2.75;1.80;;;;;;;15.40;55.90;100031.06;10475414;28;20132;-62
2022/07/03 02:08:39;;;;;;;3.22;1.98;;;;;;;15.29;56.08;100028.41;10480634;28;20075;-62
2022/07/03 02:14:09;;;;;;;3.25;1.50;;;;;;;15.28;56.49;100024.13;10480788;28;20536;-61
2022/07/03 02:19:15;;;;;;;2.58;1.70;;;;;;;15.29;56.38;100026.63;10461649;28;20506;-61
2022/07/03 02:24:20;;;;;;;2.92;1.70;;;;;;;15.26;56.49;100021.63;10479739;28;20131;-62
2022/07/03 02:29:35;;;;;;;5.05;2.67;;;;;;;15.14;56.95;100017.25;10479258;28;20393;-62
2022/07/03 02:34:42;;;;;;;5.47;1.80;;;;;;;15.07;57.14;100021.34;10479630;28;20135;-62
2022/07/03 02:39:50;;;;;;;4.85;1.80;;;;;;;15.04;57.17;100015.47;10479551;28;20072;-62
2022/07/03 02:44:54;;;;;;;3.65;1.70;;;;;;;15.00;57.10;100011.41;10479837;28;21067;-62
2022/07/03 02:50:11;;;;;;;4.93;1.90;;;;;;;14.90;57.68;100015.69;10477585;28;20106;-63
2022/07/03 02:55:43;;;;;;;6.00;1.90;;;;;;;14.63;58.11;100025.66;10478957;28;20079;-62
2022/07/03 03:00:56;;;;;;;3.35;1.80;;;;;;;14.58;58.25;100033.91;10477678;28;20088;-62
2022/07/03 03:06:08;;;;;;;4.28;1.90;;;;;;;14.67;58.03;100027.97;10472225;28;20118;-62
2022/07/03 03:11:38;;;;;;;3.63;1.90;;;;;;;14.68;58.05;100023.50;10470605;28;20048;-62
2022/07/03 03:16:48;;;;;;;4.05;1.98;;;;;;;14.66;58.00;100028.91;10471047;28;20576;-63
2022/07/03 03:22:19;;;;;;;3.10;1.80;;;;;;;14.66;57.92;100039.44;10469562;28;20123;-62
2022/07/03 03:27:22;;;;;;;2.78;1.80;;;;;;;14.63;57.92;100042.31;10409986;28;20071;-62
2022/07/03 03:32:24;;;;;;;3.67;1.75;;;;;;;14.57;57.92;100043.59;10470176;28;21057;-62
2022/07/03 03:37:26;;;;;;;4.85;2.00;;;;;;;14.65;58.04;100055.34;10470212;28;20048;-62
2022/07/03 03:42:28;;;;;;;2.70;1.80;;;;;;;14.68;57.78;100058.59;10470201;28;20131;-62
2022/07/03 03:47:30;;;;;;;3.63;1.80;;;;;;;14.77;57.64;100059.69;10468129;28;20936;-63
2022/07/03 03:52:32;;;;;;;4.05;1.80;;;;;;;14.83;57.41;100053.97;10450861;28;20404;-63
2022/07/03 03:57:35;;;;;;;3.63;1.67;;;;;;;14.87;57.56;100042.25;10469102;28;20948;-63
2022/07/03 04:02:37;;;;;;;5.82;1.90;;;;;;;14.93;57.25;100049.69;10467905;28;20487;-64
2022/07/03 04:07:39;;;;;;;3.63;1.75;;;;;;;14.95;57.46;100048.63;10458179;28;20201;-62
2022/07/03 04:12:40;;;;;;;5.35;1.90;;;;;;;15.19;57.21;100044.09;10463007;28;20312;-63
2022/07/03 04:17:42;;;;;;;4.30;1.90;;;;;;;17.73;52.30;100042.34;10466374;28;20426;-63
2022/07/03 04:22:44;;;;;;;7.68;2.10;;;;;;;20.65;45.83;100028.84;10453937;28;20135;-62
2022/07/03 04:27:45;;;;;;;2.97;1.70;;;;;;;22.71;41.31;100013.28;10462829;28;20090;-61
2022/07/03 04:33:07;;;;;;;3.20;1.73;;;;;;;24.72;37.41;100015.19;10459746;28;20705;-63
2022/07/03 04:38:09;;;;;;;2.10;1.45;;;;;;;26.33;34.49;100013.31;10467691;28;20323;-63
2022/07/03 04:43:11;;;;;;;3.88;1.42;;;;;;;27.14;32.68;100023.59;10466341;28;20049;-63
2022/07/03 04:48:13;;;;;;;5.07;1.60;;;;;;;27.80;31.06;100018.63;10447812;28;20147;-63
2022/07/03 04:53:17;;;;;;;2.42;1.50;;;;;;;28.61;29.74;100014.91;10466764;28;20044;-62
2022/07/03 04:58:19;;;;;;;2.30;1.60;;;;;;;28.99;29.13;100016.00;10466055;28;20084;-61
2022/07/03 05:03:21;;;;;;;4.53;1.60;;;;;;;28.89;29.15;100020.97;10466084;28;20101;-63
2022/07/03 05:08:23;;;;;;;3.42;1.50;;;;;;;29.02;28.65;100026.34;10430842;28;20190;-63
2022/07/03 05:13:24;;;;;;;2.35;1.60;;;;;;;29.64;27.61;100026.66;10461176;28;20167;-63
2022/07/03 05:18:26;;;;;;;3.95;1.70;;;;;;;30.22;26.88;100018.56;10465875;28;20094;-63
2022/07/03 05:23:28;;;;;;;4.35;1.90;;;;;;;30.67;26.32;100020.16;10466024;28;20127;-62
2022/07/03 05:28:30;;;;;;;3.47;1.60;;;;;;;30.85;26.17;100017.50;10466239;28;20113;-63
2022/07/03 05:33:32;;;;;;;2.78;1.50;;;;;;;30.09;26.47;100024.84;10463305;28;20060;-63
2022/07/03 05:43:54;;;;;;;2.95;1.40;;;;;;;24.92;33.67;100027.03;10465379;28;20145;-62
2022/07/03 05:48:56;;;;;;;3.22;1.60;;;;;;;23.63;36.15;100029.69;10438354;28;20063;-63
2022/07/03 05:53:58;;;;;;;5.03;1.88;;;;;;;22.57;37.91;100046.78;10461095;28;20102;-63
2022/07/03 05:58:59;;;;;;;3.95;1.60;;;;;;;21.69;39.77;100044.69;10459217;28;20136;-62
2022/07/03 06:04:01;;;;;;;3.72;1.90;;;;;;;21.47;40.74;100047.91;10456710;28;20461;-62
2022/07/03 06:09:03;;;;;;;3.30;1.73;;;;;;;21.21;41.40;100056.84;10459716;28;20278;-62
2022/07/03 06:14:05;;;;;;;3.95;1.70;;;;;;;20.91;42.13;100058.09;10465498;28;20095;-62
2022/07/03 06:19:07;;;;;;;3.05;1.60;;;;;;;20.84;42.59;100049.94;10467201;28;20341;-62
2022/07/03 06:24:08;;;;;;;3.33;1.60;;;;;;;21.15;42.78;100060.94;10466329;28;21304;-62
2022/07/03 06:29:10;;;;;;;3.92;1.77;;;;;;;21.59;41.73;100054.63;10466101;28;20582;-62
2022/07/03 06:34:12;;;;;;;7.90;1.88;;;;;;;21.73;41.49;100047.84;10465355;28;20049;-62
2022/07/03 06:39:14;;;;;;;5.63;2.40;;;;;;;21.48;42.13;100059.34;10465390;28;20422;-62
2022/07/03 06:44:15;;;;;;;4.03;1.83;;;;;;;21.71;42.06;100061.31;10465035;28;20554;-62
2022/07/03 06:49:17;;;;;;;2.40;1.60;;;;;;;22.28;41.28;100056.22;10465050;28;20088;-62
2022/07/03 06:54:19;;;;;;;5.50;1.70;;;;;;;22.92;39.93;100058.16;10462359;28;20122;-63
2022/07/03 06:59:20;;;;;;;4.45;1.70;;;;;;;23.40;39.19;100050.06;10466226;28;20243;-61
2022/07/03 07:04:22;;;;;;;3.55;1.80;;;;;;;24.57;37.49;100041.00;10447781;28;20084;-61
2022/07/03 07:09:24;;;;;;;3.33;1.70;;;;;;;26.57;35.28;100036.28;10465286;28;20044;-61
2022/07/03 07:14:26;;;;;;;3.45;1.65;;;;;;;28.50;32.22;100032.53;10463716;28;20469;-61
2022/07/03 07:19:27;;;;;;;6.65;1.50;;;;;;;28.70;30.89;100027.16;10463766;28;20473;-61
2022/07/03 07:24:29;;;;;;;3.30;1.40;;;;;;;29.05;30.54;100028.66;10463215;28;20138;-61
2022/07/03 07:29:31;;;;;;;2.35;1.23;;;;;;;30.15;29.25;100028.56;10464946;28;20878;-61
2022/07/03 07:34:32;;;;;;;4.00;1.52;;;;;;;31.15;27.97;100018.50;10461849;28;20544;-62
2022/07/03 07:39:34;;;;;;;5.50;1.45;;;;;;;31.91;26.59;100018.94;10462649;28;20601;-62
2022/07/03 07:44:36;;;;;;;2.70;1.50;;;;;;;32.99;25.03;100015.09;10462970;28;20057;-61
2022/07/03 07:49:38;;;;;;;2.33;1.40;;;;;;;32.81;24.85;100014.31;10462928;28;20139;-61
2022/07/03 07:54:39;;;;;;;4.68;1.30;;;;;;;32.32;25.28;100017.34;10461673;28;20048;-62
2022/07/03 07:59:41;;;;;;;5.13;1.58;;;;;;;32.43;25.08;100008.47;10462755;28;20048;-61
2022/07/03 08:10:09;;;;;;;3.65;1.60;;;;;;;30.85;26.34;100014.81;10463147;28;20084;-62
2022/07/03 08:15:10;;;;;;;3.90;1.45;;;;;;;31.71;25.61;100010.25;10445624;28;20514;-62
2022/07/03 08:20:12;;;;;;;3.25;1.40;;;;;;;32.55;25.08;100009.34;10463025;28;20061;-63
2022/07/03 08:25:14;;;;;;;4.35;1.45;;;;;;;33.01;24.55;99996.72;10461253;28;20483;-63
2022/07/03 08:30:17;;;;;;;4.40;1.50;;;;;;;33.24;24.18;99995.03;10461265;28;20056;-63
2022/07/03 08:35:19;;;;;;;3.00;1.30;;;;;;;33.12;23.58;99999.66;10438494;28;20497;-63
2022/07/03 08:40:21;;;;;;;4.47;1.40;;;;;;;33.05;23.88;99997.03;10462384;28;20147;-63
2022/07/03 08:45:24;;;;;;;6.20;1.40;;;;;;;33.40;23.73;99988.88;10456347;28;20147;-63
2022/07/03 08:50:26;;;;;;;3.25;1.40;;;;;;;33.09;24.49;99991.97;10459345;28;20057;-63
2022/07/03 08:55:28;;;;;;;3.05;1.30;;;;;;;32.80;23.97;99991.03;10462127;28;20127;-63
2022/07/03 09:00:35;;;;;;;5.38;1.50;;;;;;;33.16;23.10;99982.69;10460528;28;20052;-62
2022/07/03 09:05:38;;;;;;;2.97;1.20;;;;;;;32.81;22.86;99992.66;10459908;28;20544;-69
2022/07/03 09:10:40;;;;;;;2.97;1.30;;;;;;;32.25;22.78;99991.22;10440033;28;20192;-70
2022/07/03 09:15:44;;;;;;;2.95;1.30;;;;;;;32.49;23.38;99986.72;10424102;28;20049;-70
2022/07/03 09:20:46;;;;;;;4.82;1.30;;;;;;;32.35;22.55;99990.69;10435250;28;20048;-70
2022/07/03 09:25:59;;;;;;;2.60;1.20;;;;;;;32.17;21.77;99988.00;10443829;28;20393;-71
2022/07/03 09:31:01;;;;;;;4.90;1.40;;;;;;;31.22;23.87;99992.25;10440618;28;20136;-71
2022/07/03 09:36:03;;;;;;;3.78;1.30;;;;;;;31.90;22.39;99987.50;10419307;28;20143;-69
2022/07/03 09:41:05;;;;;;;4.00;1.27;;;;;;;32.24;21.74;99989.56;10436735;28;20887;-68
2022/07/03 09:46:07;;;;;;;4.22;1.20;;;;;;;31.33;22.72;99990.69;10437034;28;20182;-70
2022/07/03 09:51:12;;;;;;;2.33;1.13;;;;;;;29.77;24.45;99999.66;10439970;28;20131;-70
2022/07/03 09:56:16;;;;;;;3.15;1.15;;;;;;;30.51;23.55;99985.59;10447246;28;20909;-70
2022/07/03 10:01:19;;;;;;;4.00;1.20;;;;;;;31.48;22.95;99988.44;10445601;28;20483;-70
2022/07/03 10:06:20;;;;;;;6.25;1.23;;;;;;;31.76;21.97;99991.44;10447226;28;20689;-70
2022/07/03 10:11:22;;;;;;;4.55;1.17;;;;;;;31.49;21.66;99979.31;10450522;28;20072;-72
2022/07/03 10:16:25;;;;;;;2.20;1.00;;;;;;;31.55;21.59;99985.69;10427423;28;20471;-72
2022/07/03 10:21:27;;;;;;;2.60;1.20;;;;;;;32.07;21.91;99985.03;10429505;28;20124;-70
2022/07/03 10:26:29;;;;;;;5.78;1.17;;;;;;;32.68;20.91;99982.03;10452388;28;20080;-71
2022/07/03 10:31:31;;;;;;;3.53;1.05;;;;;;;32.27;20.13;99976.63;10465570;28;20121;-70
2022/07/03 10:36:37;;;;;;;2.47;1.00;;;;;;;31.61;20.33;99980.22;10466829;28;20573;-71
2022/07/03 10:47:03;;;;;;;2.28;1.10;;;;;;;31.17;21.79;99975.88;10467029;28;20099;-70
2022/07/03 10:52:16;;;;;;;2.25;1.10;;;;;;;30.89;21.70;99974.66;10465242;28;20048;-71
2022/07/03 10:57:19;;;;;;;3.50;1.05;;;;;;;30.73;22.57;99975.25;10466002;28;20500;-71
2022/07/03 11:02:41;;;;;;;2.15;1.10;;;;;;;30.24;22.50;99979.53;10447708;28;21042;-70
2022/07/03 11:07:53;;;;;;;2.50;1.00;;;;;;;30.19;23.12;99975.84;10465466;28;20064;-70
2022/07/03 11:13:04;;;;;;;4.90;1.23;;;;;;;30.21;22.73;99966.50;10445514;28;20057;-70
2022/07/03 11:18:14;;;;;;;2.03;1.00;;;;;;;30.09;23.17;99954.72;10464774;28;20052;-70
2022/07/03 11:23:49;;;;;;;1.27;0.75;;;;;;;30.25;21.99;99954.22;10466271;28;20049;-71
2022/07/03 11:28:52;;;;;;;2.83;1.13;;;;;;;30.21;22.36;99953.00;10423167;28;20145;-72
2022/07/03 11:33:53;;;;;;;5.50;1.20;;;;;;;30.23;22.20;99955.47;10464359;28;20194;-71
2022/07/03 11:38:55;;;;;;;3.50;1.00;;;;;;;30.28;21.87;99939.44;10439145;28;20041;-71
2022/07/03 11:44:03;;;;;;;1.85;1.02;;;;;;;29.90;22.01;99934.06;10458355;28;20052;-71
2022/07/03 11:49:05;;;;;;;1.13;0.82;;;;;;;29.48;22.65;99935.50;10463528;28;20053;-70
2022/07/03 11:54:07;;;;;;;3.45;1.00;;;;;;;29.68;22.87;99933.53;10456650;28;20053;-70
2022/07/03 11:59:09;;;;;;;3.50;0.90;;;;;;;30.02;21.89;99931.53;10461463;28;20559;-71
2022/07/03 12:04:15;;;;;;;2.85;1.00;;;;;;;30.23;21.08;99940.13;10462613;28;20525;-71
2022/07/03 12:09:17;;;;;;;2.63;1.00;;;;;;;30.38;20.87;99935.22;10461416;28;20471;-70
2022/07/03 12:14:41;;;;;;;1.83;0.90;;;;;;;29.81;21.08;99919.16;10455249;28;20135;-71
2022/07/03 12:20:06;;;;;;;2.85;1.23;;;;;;;29.08;22.16;99917.78;10462601;28;20412;-71
2022/07/03 12:25:10;;;;;;;2.53;0.90;;;;;;;29.62;21.04;99912.03;10461726;28;20098;-71
2022/07/03 12:30:20;;;;;;;2.08;0.85;;;;;;;30.07;21.15;99902.84;10460952;28;20057;-70
2022/07/03 12:35:29;;;;;;;1.25;0.90;;;;;;;30.24;20.24;99901.28;10443527;28;20045;-72
2022/07/03 12:40:30;;;;;;;3.60;1.20;;;;;;;30.20;20.99;99891.16;10457898;28;20902;-71
2022/07/03 12:45:32;;;;;;;9.02;1.15;;;;;;;30.56;20.38;99889.41;10462047;28;20139;-71
2022/07/03 12:50:44;;;;;;;7.00;1.20;;;;;;;30.67;20.12;99890.56;10460915;28;20496;-70
2022/07/03 12:55:46;;;;;;;1.60;0.90;;;;;;;30.79;20.53;99890.63;10460608;28;20084;-70
2022/07/03 13:00:49;;;;;;;1.75;0.98;;;;;;;30.63;20.36;99881.25;10458480;28;20136;-71
2022/07/03 13:05:51;;;;;;;6.07;1.27;;;;;;;30.29;21.16;99889.84;10457213;28;20056;-71
2022/07/03 13:10:57;;;;;;;3.47;1.08;;;;;;;30.43;20.06;99877.88;10459599;28;20487;-71
2022/07/03 13:15:59;;;;;;;1.48;1.00;;;;;;;30.68;20.48;99874.13;10458804;28;20040;-71
2022/07/03 13:21:01;;;;;;;3.90;1.33;;;;;;;30.65;21.13;99880.00;10464515;28;20139;-70
2022/07/03 13:26:04;;;;;;;2.58;1.10;;;;;;;30.65;20.04;99877.28;10469328;28;20145;-71
2022/07/03 13:31:05;;;;;;;1.30;0.80;;;;;;;30.71;20.52;99872.88;10469364;28;20056;-71
2022/07/03 13:36:07;;;;;;;1.67;1.08;;;;;;;30.87;20.35;99866.03;10469218;28;20080;-71
2022/07/03 13:41:10;;;;;;;4.38;0.98;;;;;;;30.95;19.66;99866.56;10467488;28;20045;-71
2022/07/03 13:46:11;;;;;;;3.00;1.10;;;;;;;30.62;20.08;99868.78;10469072;28;20143;-70
2022/07/03 13:51:13;;;;;;;3.25;1.10;;;;;;;30.36;20.08;99869.00;10466353;28;20661;-72
2022/07/03 13:56:17;;;;;;;1.77;0.98;;;;;;;30.42;20.32;99852.75;10468601;28;20041;-72
2022/07/03 14:01:20;;;;;;;3.05;1.17;;;;;;;30.85;20.36;99852.78;10451081;28;20084;-72
2022/07/03 14:06:22;;;;;;;3.63;1.00;;;;;;;30.77;20.38;99849.53;10468915;28;20300;-71
2022/07/03 14:11:24;;;;;;;2.10;1.10;;;;;;;30.61;20.51;99856.34;10467718;28;20728;-72
2022/07/03 14:16:26;;;;;;;1.38;0.90;;;;;;;30.50;20.57;99849.81;10449591;28;20055;-72
2022/07/03 14:21:28;;;;;;;4.55;1.20;;;;;;;30.71;20.13;99843.16;10466520;28;20449;-70
2022/07/03 14:37:16;;;;;;;1.88;1.00;;;;;;;30.35;20.23;99838.53;10466032;28;20076;-71
2022/07/03 14:42:18;;;;;;;1.85;0.82;;;;;;;30.29;20.81;99839.41;10457194;28;20055;-71
2022/07/03 14:47:20;;;;;;;3.35;1.10;;;;;;;30.57;20.48;99830.84;10445719;28;20072;-72
2022/07/03 14:52:22;;;;;;;3.60;1.00;;;;;;;30.85;20.29;99825.78;10464161;28;20044;-71
2022/07/03 14:57:37;;;;;;;2.75;1.30;;;;;;;30.90;20.36;99835.91;10467619;28;20142;-71
2022/07/03 15:02:48;;;;;;;2.45;1.20;;;;;;;31.01;20.12;99833.28;10465758;28;20044;-70
2022/07/03 15:08:05;;;;;;;1.65;1.00;;;;;;;30.96;19.81;99826.91;10463075;28;20205;-72
2022/07/03 15:13:07;;;;;;;2.70;1.10;;;;;;;30.78;19.93;99822.34;10458165;28;20114;-70
2022/07/03 15:18:11;;;;;;;1.45;1.08;;;;;;;30.49;20.52;99821.19;10461918;28;20507;-71
2022/07/03 15:23:14;;;;;;;2.95;1.20;;;;;;;30.67;20.43;99806.88;10462816;28;20084;-71
2022/07/03 15:28:17;;;;;;;2.63;1.20;;;;;;;30.74;20.94;99807.63;10440389;28;20788;-72
2022/07/03 15:33:19;;;;;;;2.67;1.20;;;;;;;30.74;20.43;99809.50;10439958;28;20922;-71
2022/07/03 15:38:27;;;;;;;6.25;1.20;;;;;;;31.05;20.42;99820.16;10442074;28;20561;-72
2022/07/03 15:43:52;;;;;;;2.53;0.90;;;;;;;30.68;20.39;99813.94;10440093;28;20523;-72
2022/07/03 15:48:59;;;;;;;5.13;1.45;;;;;;;30.67;20.47;99812.25;10445096;28;20459;-71
2022/07/03 15:54:05;;;;;;;3.37;1.00;;;;;;;30.89;19.70;99807.22;10445864;28;20057;-71
2022/07/03 15:59:13;;;;;;;4.40;1.13;;;;;;;31.06;19.81;99813.72;10443981;28;20131;-72
2022/07/03 16:04:35;;;;;;;3.40;1.07;;;;;;;30.85;20.63;99808.72;10440177;28;20051;-72
2022/07/03 16:09:37;;;;;;;3.47;1.17;;;;;;;30.44;20.95;99812.03;10445516;28;20406;-71
2022/07/03 16:14:39;;;;;;;2.13;1.13;;;;;;;30.41;21.12;99813.34;10436406;28;20587;-71
2022/07/03 16:19:44;;;;;;;2.28;1.10;;;;;;;30.38;22.50;99813.78;10444164;28;20262;-71
2022/07/03 16:24:47;;;;;;;2.17;1.00;;;;;;;30.29;22.69;99806.19;10444574;28;20051;-71
2022/07/03 16:29:49;;;;;;;1.98;1.10;;;;;;;30.17;22.86;99800.69;10448500;28;20115;-71
2022/07/03 16:35:06;;;;;;;3.22;1.13;;;;;;;30.04;22.19;99803.50;10445745;28;20163;-70
2022/07/03 16:40:09;;;;;;;5.20;1.20;;;;;;;29.94;22.95;99815.81;10443568;28;20060;-71
2022/07/03 16:45:13;;;;;;;4.38;1.30;;;;;;;29.98;23.09;99814.34;10442460;28;20680;-70
2022/07/03 16:50:17;;;;;;;2.47;1.20;;;;;;;29.68;25.61;99816.81;10442634;28;20056;-72
2022/07/03 16:55:20;;;;;;;6.65;1.40;;;;;;;29.51;26.53;99819.22;10443094;28;20048;-72
2022/07/03 17:00:25;;;;;;;3.83;1.48;;;;;;;29.01;27.55;99837.00;10444880;28;20047;-71
2022/07/03 17:05:26;;;;;;;3.95;1.35;;;;;;;29.14;27.39;99836.16;10446284;28;21061;-72
2022/07/03 17:10:30;;;;;;;4.35;1.42;;;;;;;28.79;28.48;99840.16;10442398;28;20194;-71
2022/07/03 17:15:31;;;;;;;2.80;1.38;;;;;;;28.72;28.71;99844.75;10438980;28;20472;-71
2022/07/03 17:20:37;;;;;;;5.47;1.40;;;;;;;28.66;28.79;99854.50;10436916;28;20045;-71
2022/07/03 17:25:47;;;;;;;3.10;1.30;;;;;;;28.42;29.06;99852.44;10440258;28;20052;-71
2022/07/03 17:31:11;;;;;;;4.47;1.48;;;;;;;28.14;29.45;99862.56;10434662;28;20438;-71
2022/07/03 17:36:26;;;;;;;4.00;1.42;;;;;;;28.06;29.74;99863.59;10440590;28;20071;-71
2022/07/03 17:41:30;;;;;;;3.47;1.63;;;;;;;27.84;30.04;99870.19;10445084;28;20161;-71
2022/07/03 17:46:36;;;;;;;4.03;1.35;;;;;;;27.68;30.80;99869.69;10418245;28;20328;-71
2022/07/03 17:51:41;;;;;;;4.97;1.40;;;;;;;27.68;30.85;99875.06;10451219;28;20054;-71
2022/07/03 17:56:44;;;;;;;4.10;1.55;;;;;;;27.56;30.47;99885.59;10433630;28;20455;-70
2022/07/03 18:01:48;;;;;;;5.68;1.48;;;;;;;27.16;31.28;99881.91;10459865;28;20535;-70
2022/07/03 18:06:49;;;;;;;4.25;1.50;;;;;;;26.99;31.62;99882.41;10454173;28;20044;-72
2022/07/03 18:11:57;;;;;;;3.13;1.30;;;;;;;26.73;32.00;99885.75;10459599;28;20366;-72
2022/07/03 18:17:00;;;;;;;4.55;1.50;;;;;;;26.56;32.11;99889.78;10465955;28;20518;-70
2022/07/03 18:22:05;;;;;;;4.78;1.30;;;;;;;26.35;32.71;99897.81;10466266;28;20723;-70
2022/07/03 18:27:14;;;;;;;4.15;1.50;;;;;;;26.02;32.90;99910.91;10463683;28;20131;-72
2022/07/03 18:32:17;;;;;;;4.25;1.60;;;;;;;25.84;33.25;99923.91;10467550;28;20068;-72
2022/07/03 18:37:20;;;;;;;2.53;1.33;;;;;;;25.54;33.65;99927.69;10448838;28;20063;-71
2022/07/03 18:42:22;;;;;;;8.50;1.50;;;;;;;25.28;33.84;99938.03;10448010;28;20053;-72
2022/07/03 18:47:24;;;;;;;4.10;1.50;;;;;;;25.10;34.50;99941.09;10463248;28;20157;-71
2022/07/03 18:52:58;;;;;;;3.72;1.50;;;;;;;25.06;34.72;99937.94;10464016;28;20339;-66
2022/07/03 18:58:33;;;;;;;3.92;1.40;;;;;;;24.65;35.47;99935.84;10467011;28;20059;-64
2022/07/03 19:03:52;;;;;;;4.85;1.40;;;;;;;24.53;35.63;99942.63;10466748;28;20354;-65
2022/07/03 19:09:09;;;;;;;6.47;1.50;;;;;;;24.26;35.92;99926.16;10462747;28;20131;-63
2022/07/03 19:14:12;;;;;;;3.92;1.50;;;;;;;24.06;35.76;99935.59;10462539;28;20097;-63
2022/07/03 19:19:15;;;;;;;6.25;1.70;;;;;;;23.98;36.10;99941.00;10461227;28;20600;-62
2022/07/03 19:24:17;;;;;;;3.00;1.40;;;;;;;24.00;36.29;99949.66;10464185;28;20049;-63
2022/07/03 19:29:18;;;;;;;4.07;1.80;;;;;;;23.85;36.37;99962.13;10462143;28;20142;-64
2022/07/03 19:34:21;;;;;;;6.60;1.50;;;;;;;23.73;36.42;99968.03;10446704;28;20079;-65
2022/07/03 19:39:22;;;;;;;7.50;1.50;;;;;;;23.60;36.64;99975.75;10463877;28;20048;-63
2022/07/03 19:44:27;;;;;;;3.67;1.50;;;;;;;23.52;36.71;99990.00;10463929;28;20080;-64
2022/07/03 19:49:29;;;;;;;6.28;1.50;;;;;;;23.36;37.29;99992.69;10460201;28;20894;-64
2022/07/03 19:54:30;;;;;;;7.20;1.60;;;;;;;23.29;37.03;100007.72;10462925;28;20049;-65
2022/07/03 19:59:32;;;;;;;5.13;1.40;;;;;;;23.16;37.23;100018.09;10466597;28;20139;-65
2022/07/03 20:04:34;;;;;;;3.17;1.42;;;;;;;22.96;37.44;100038.97;10466542;28;20131;-64
2022/07/03 20:09:36;;;;;;;4.53;1.60;;;;;;;22.87;37.60;100042.63;10467705;28;20096;-64
2022/07/03 20:14:38;;;;;;;8.20;1.60;;;;;;;22.72;37.71;100057.59;10448925;28;20371;-65
2022/07/03 20:19:39;;;;;;;6.28;1.50;;;;;;;22.61;38.19;100066.78;10466486;28;20367;-65
2022/07/03 20:24:41;;;;;;;4.45;1.45;;;;;;;22.52;38.37;100078.41;10425070;28;20223;-65
2022/07/03 20:29:49;;;;;;;5.22;2.03;;;;;;;22.30;38.48;100076.38;10462016;28;20125;-65
2022/07/03 20:34:52;;;;;;;5.40;1.80;;;;;;;22.21;38.88;100080.00;10465940;28;20060;-65
2022/07/03 20:39:54;;;;;;;6.97;1.52;;;;;;;22.08;38.54;100087.63;10465200;28;20412;-65
2022/07/03 20:44:56;;;;;;;11.25;1.77;;;;;;;21.99;38.64;100093.88;10465531;28;20131;-65
2022/07/03 20:50:13;;;;;;;5.68;1.55;;;;;;;21.96;39.03;100096.88;10464584;28;20071;-65
2022/07/03 20:55:15;;;;;;;6.10;1.77;;;;;;;21.92;39.03;100108.84;10464257;28;20488;-65
2022/07/03 21:00:17;;;;;;;6.60;1.60;;;;;;;21.83;39.43;100115.97;10443035;28;20259;-65
2022/07/03 21:05:19;;;;;;;4.43;1.30;;;;;;;21.69;39.87;100121.03;10441370;28;20376;-65
2022/07/03 21:11:31;;;;;;;5.03;1.67;;;;;;;21.57;39.93;100117.81;10464791;28;20451;-65
2022/07/03 21:15:42;;;;;;;3.97;1.40;;;;;;;21.50;40.36;100121.25;10465677;28;20137;-65
2022/07/03 21:20:44;;;;;;;5.03;1.60;;;;;;;21.43;40.55;100120.22;10463913;28;20098;-65
2022/07/03 21:25:46;;;;;;;6.50;1.50;;;;;;;21.28;40.56;100119.91;10458624;28;20371;-65
2022/07/03 21:30:47;;;;;;;5.05;1.60;;;;;;;21.12;41.12;100132.25;10464300;28;20058;-65
2022/07/03 21:35:49;;;;;;;6.15;1.70;;;;;;;21.03;41.46;100134.00;10465008;28;20515;-65
2022/07/03 21:40:51;;;;;;;4.60;1.30;;;;;;;20.90;41.69;100139.72;10466277;28;20447;-65
2022/07/03 21:45:53;;;;;;;6.60;1.48;;;;;;;20.83;42.33;100154.59;10473121;28;20587;-65
2022/07/03 21:50:55;;;;;;;6.18;1.50;;;;;;;20.74;42.21;100160.00;10470997;28;20127;-65
2022/07/03 21:55:57;;;;;;;3.47;1.40;;;;;;;20.68;42.31;100164.06;10472294;28;20091;-65
2022/07/03 22:00:59;;;;;;;7.72;1.60;;;;;;;20.64;42.27;100165.34;10472691;28;20464;-65
2022/07/03 22:06:02;;;;;;;3.75;1.48;;;;;;;20.63;42.29;100153.06;10472109;28;20053;-65
2022/07/03 22:11:03;;;;;;;4.80;1.70;;;;;;;20.52;42.04;100155.88;10471780;28;20052;-65
2022/07/03 22:16:05;;;;;;;5.05;1.30;;;;;;;20.54;42.27;100161.06;10471668;28;20131;-65
2022/07/03 22:21:08;;;;;;;3.30;1.80;;;;;;;20.53;42.61;100159.38;10449660;28;20084;-65
2022/07/03 22:26:11;;;;;;;3.38;1.48;;;;;;;20.35;43.44;100163.84;10450991;28;20051;-64
2022/07/03 22:36:35;;;;;;;4.55;1.42;;;;;;;20.05;43.32;100155.16;10470031;28;20130;-64
2022/07/03 22:41:37;;;;;;;3.92;1.40;;;;;;;19.95;43.58;100161.53;10453163;28;20079;-64
2022/07/03 22:46:38;;;;;;;3.22;1.45;;;;;;;19.83;43.68;100158.19;10470791;28;20056;-63
2022/07/03 22:51:41;;;;;;;4.07;1.40;;;;;;;19.76;44.02;100164.19;10469046;28;20048;-64
2022/07/03 22:56:46;;;;;;;4.95;1.50;;;;;;;19.68;44.34;100161.44;10468672;28;20059;-63
2022/07/03 23:01:49;;;;;;;3.80;1.45;;;;;;;19.54;44.57;100168.03;10468825;28;20080;-63
2022/07/03 23:06:51;;;;;;;6.95;1.45;;;;;;;19.48;44.83;100161.47;10468102;28;20070;-63
2022/07/03 23:11:52;;;;;;;3.95;1.70;;;;;;;19.30;45.36;100165.81;10467732;28;20135;-64
2022/07/03 23:16:54;;;;;;;5.90;1.70;;;;;;;19.22;45.09;100175.44;10468752;28;20151;-63
2022/07/03 23:21:56;;;;;;;5.55;1.40;;;;;;;18.93;45.29;100178.06;10468533;28;20037;-64
2022/07/03 23:26:58;;;;;;;9.50;1.67;;;;;;;18.77;45.61;100188.38;10467523;28;20075;-64
2022/07/03 23:31:59;;;;;;;5.38;1.48;;;;;;;18.68;45.88;100178.63;10450774;28;20543;-63
2022/07/03 23:37:01;;;;;;;4.15;1.50;;;;;;;18.65;45.88;100186.81;10448916;28;20056;-65
2022/07/03 23:42:03;;;;;;;4.57;1.70;;;;;;;18.60;45.98;100189.91;10468564;28;20520;-63
2022/07/03 23:47:05;;;;;;;3.80;1.50;;;;;;;18.42;46.14;100196.00;10468110;28;20072;-63
2022/07/03 23:52:07;;;;;;;4.93;1.60;;;;;;;18.41;45.99;100202.25;10465517;28;20045;-63
2022/07/03 23:57:09;;;;;;;3.55;1.42;;;;;;;18.46;46.24;100202.69;10466544;28;20300;-63
